Last 7 Days

Morrison Lane

Hourly Data | America/Los_Angeles
as of 4/23/24 8:48 PM PDT
Date & Time BatVolt (V) CellRSSI (dB) CellUseToday (kb) Dew Pt (°F) ETo Hr (in) Latest Rain (In) RH (%) Solar Rad (W/m2) Temp (°F) Wet Bulb (°F) Wind Dir (°) Wind Gust (mph) Wind Gst Dir (°) Wind Spd (mph) Daily ETo (in) Daily Rain (In) Daily Max Temp (°F) Daily Min Temp (°F)
4/23/24 - 2000 13.0 -61 319.3 44.8 0.003 0.00 62 16 57.5 51.1 SW | 234 15.0 SSW | 212 7.3 0.154 0.00 64.3 52.6
4/23/24 - 1900 13.7 -59 302.9 44.8 0.005 0.00 60 75 58.5 51.5 SW | 236 16.9 WSW | 250 9.2 0.152 0.00 64.3 52.6
4/23/24 - 1800 13.7 -59 286.1 45.6 0.008 0.00 60 220 59.6 52.4 WSW | 237 19.4 WSW | 249 11.2 0.147 0.00 64.3 52.6
4/23/24 - 1700 13.7 -61 270.2 46.4 0.012 0.00 57 449 61.6 53.5 SW | 230 21.4 W | 262 11.1 0.139 0.00 64.3 52.6
4/23/24 - 1600 13.6 -61 252.7 46.3 0.019 0.00 54 819 63.0 54.0 SW | 226 19.4 SSW | 208 11.7 0.127 0.00 64.3 52.6
4/23/24 - 1500 13.6 0 236.8 46.6 0.020 0.00 55 907 63.1 54.2 SW | 232 20.2 WSW | 244 11.6 0.109 0.00 64.3 52.6
4/23/24 - 1400 13.7 -59 221.1 47.0 0.023 0.00 55 1,023 63.4 54.4 SW | 227 20.3 SSW | 211 10.6 0.088 0.00 64.3 52.6
4/23/24 - 1300 13.7 -63 204.5 45.5 0.020 0.00 54 873 62.1 53.2 SW | 223 20.8 SW | 223 11.1 0.066 0.00 63.5 52.6
4/23/24 - 1200 13.7 -59 188 46.3 0.017 0.00 58 769 61.0 53.2 SW | 219 18.8 SSW | 195 9.8 0.046 0.00 63.0 52.6
4/23/24 - 1100 13.7 -59 170.8 46.1 0.011 0.00 63 450 58.7 52.2 SW | 230 17.8 WSW | 249 9.3 0.029 0.00 60.9 52.6
4/23/24 - 1000 13.7 -59 154.2 46.2 0.008 0.00 65 329 57.7 51.9 SW | 230 15.6 SSW | 204 8.5 0.018 0.00 59.0 52.6
4/23/24 - 0900 13.8 -61 139.7 46.7 0.005 0.00 71 162 55.9 51.5 SW | 232 17.6 SSW | 205 7.5 0.010 0.00 57.5 52.6
4/23/24 - 0800 13.5 -61 123.3 46.4 0.003 0.00 73 57 55.0 51.0 WSW | 237 14.2 WSW | 241 6.3 0.006 0.00 55.2 52.6
4/23/24 - 0700 12.8 -63 104.6 46.0 0.001 0.00 73 9 54.3 50.5 WSW | 252 14.2 W | 277 6.1 0.003 0.00 54.7 52.6
4/23/24 - 0600 12.8 -63 87.3 46.2 0.000 0.00 75 0 53.9 50.4 W | 270 15.0 WNW | 291 7.0 0.002 0.00 54.2 52.6
4/23/24 - 0500 12.8 -65 70.8 46.4 0.000 0.00 77 0 53.4 50.3 WNW | 285 13.7 NW | 304 7.4 0.001 0.00 53.6 52.6
4/23/24 - 0400 12.9 -63 50.93 46.3 0.000 0.00 77 0 53.2 50.1 WNW | 284 14.8 W | 273 7.6 0.001 0.00 53.5 52.6
4/23/24 - 0300 12.9 -65 34.24 46.0 0.000 0.00 77 0 53.0 49.9 WNW | 294 13.6 WSW | 248 6.3 0.001 0.00 53.4 52.6
4/23/24 - 0200 12.9 -65 17.35 45.8 0.000 0.00 76 0 53.0 49.8 WNW | 283 16.2 W | 269 7.2 0.000 0.00 53.4 52.6
4/23/24 - 0100 12.9 -63 402.9 45.8 0.000 0.00 76 0 53.3 49.9 W | 276 15.0 W | 272 6.5 0.209 0.00 79.7 50.3
4/23/24 - 0000 12.9 -63 386.3 46.0 0.000 0.00 74 0 54.0 50.3 WSW | 253 13.0 W | 264 6.5 0.208 0.00 79.7 50.3
4/22/24 - 2300 12.9 -65 369.3 46.8 0.000 0.00 75 0 54.5 51.0 SW | 230 15.3 WSW | 256 7.0 0.208 0.00 79.7 50.3
4/22/24 - 2200 13.0 -63 352.8 48.4 0.000 0.00 77 0 55.5 52.3 WSW | 246 17.5 SSW | 198 4.8 0.208 0.00 79.7 50.3
4/22/24 - 2100 13.0 -59 336.3 48.8 0.001 0.00 76 0 56.2 52.8 SW | 218 25.6 SSW | 212 11.4 0.207 0.00 79.7 50.3
4/22/24 - 2000 13.0 -61 320.4 49.1 0.002 0.00 73 34 57.6 53.6 SW | 231 24.1 SW | 217 13.4 0.207 0.00 79.7 50.3
4/22/24 - 1900 13.7 -61 304 49.1 0.007 0.00 66 198 60.6 54.7 SW | 223 28.2 SW | 218 17.8 0.204 0.00 79.7 50.3
4/22/24 - 1800 13.6 -61 287.3 51.4 0.012 0.00 57 424 67.0 58.2 SW | 230 26.7 SW | 230 14.2 0.198 0.00 79.7 50.3
4/22/24 - 1700 13.6 -61 270.5 53.3 0.017 0.00 54 627 70.6 60.3 SW | 229 19.9 WSW | 242 12.0 0.185 0.00 79.7 50.3
4/22/24 - 1600 13.5 -59 253.4 54.9 0.022 0.00 51 769 74.2 62.2 SW | 221 20.1 SSW | 208 12.0 0.168 0.00 79.7 50.3
4/22/24 - 1500 13.5 -61 237.1 57.0 0.026 0.00 48 896 78.3 64.4 SW | 216 14.1 SW | 219 8.7 0.146 0.00 79.7 50.3
4/22/24 - 1400 13.5 -61 220.6 57.4 0.027 0.00 48 952 79.0 64.8 SW | 216 11.5 SSW | 212 6.5 0.120 0.00 79.7 50.3
4/22/24 - 1300 13.5 -61 204.5 54.8 0.027 0.00 44 957 78.8 63.1 S | 176 9.8 SSW | 210 3.9 0.093 0.00 79.7 50.3
4/22/24 - 1200 13.5 -59 187.7 54.1 0.024 0.00 46 903 76.2 62.1 SE | 145 7.5 ESE | 104 3.6 0.067 0.00 77.9 50.3
4/22/24 - 1100 13.6 -59 170.5 55.0 0.021 0.00 52 784 73.8 62.1 SE | 142 8.8 SE | 132 4.5 0.042 0.00 74.9 50.3
4/22/24 - 1000 13.6 -61 154 56.8 0.012 0.00 60 472 71.3 62.7 ESE | 119 7.5 ESE | 112 2.4 0.021 0.00 72.7 50.3
4/22/24 - 0900 13.6 -61 138 56.3 0.006 0.00 66 302 67.9 61.5 ESE | 106 2.8 SE | 130 0.5 0.009 0.00 69.3 50.3
4/22/24 - 0800 13.6 -63 119.5 54.0 0.003 0.00 87 206 58.0 56.8 NW | 311 2.2 W | 276 0.6 0.003 0.00 64.4 50.3
4/22/24 - 0700 13.0 -61 103.2 49.8 0.000 0.00 95 28 51.1 51.2 NW | 323 3.2 NW | 318 1.3 0.000 0.00 55.8 50.3
4/22/24 - 0600 12.8 -65 86.2 49.9 0.000 0.00 94 0 51.7 51.6 WSW | 249 2.2 WNW | 284 0.7 0.000 0.00 55.8 50.4
4/22/24 - 0500 12.8 -65 70.11 51.0 0.000 0.00 94 0 52.7 52.7 W | 269 5.4 NW | 312 2.6 0.000 0.00 55.8 51.2
4/22/24 - 0400 12.8 -59 54.3 51.3 0.000 0.00 93 0 53.1 53.0 W | 276 3.5 WNW | 285 1.8 0.000 0.00 55.8 51.3
4/22/24 - 0300 12.9 -63 37.55 51.4 0.000 0.00 94 0 53.1 53.1 WNW | 299 3.6 WNW | 298 2.2 0.000 0.00 55.8 52.6
4/22/24 - 0200 12.9 -65 19.75 51.9 0.000 0.00 92 0 54.2 53.9 WNW | 287 2.8 WNW | 294 1.6 0.000 0.00 55.8 52.9
4/22/24 - 0100 12.9 -63 410.4 53.1 0.000 0.00 91 0 55.8 55.3 WNW | 301 4.0 WNW | 291 2.5 0.209 0.00 82.0 46.4
4/22/24 - 0000 12.9 -59 394.2 53.5 0.000 0.00 88 0 57.0 56.1 WNW | 297 3.4 NW | 310 2.2 0.209 0.00 82.0 46.4
4/21/24 - 2300 13.0 -63 376 54.6 0.000 0.00 83 0 60.0 57.9 WNW | 294 3.9 WSW | 253 2.6 0.209 0.00 82.0 46.4
4/21/24 - 2200 13.0 -57 358.9 55.5 0.000 0.00 76 0 63.1 59.6 WNW | 298 3.8 WNW | 290 2.2 0.209 0.00 82.0 46.4
4/21/24 - 2100 13.0 -61 338.8 53.7 0.001 0.00 57 0 69.4 60.3 NW | 322 6.8 NW | 322 3.3 0.209 0.00 82.0 46.4
4/21/24 - 2000 13.1 -61 322.2 52.4 0.002 0.00 46 35 74.5 60.7 WSW | 248 8.9 SW | 228 4.6 0.208 0.00 82.0 46.4
4/21/24 - 1900 13.4 -61 305.5 52.2 0.008 0.00 39 213 79.4 61.7 SW | 223 9.2 SW | 220 5.1 0.206 0.00 82.0 46.4
4/21/24 - 1800 13.4 -59 288.4 53.9 0.013 0.00 39 429 80.9 63.0 S | 179 8.4 S | 169 4.6 0.199 0.00 82.0 46.4
4/21/24 - 1700 13.5 -61 271.6 56.3 0.019 0.00 42 627 81.5 64.5 SW | 214 9.0 SSW | 213 4.9 0.186 0.00 82.0 46.4
4/21/24 - 1600 13.4 -59 254.9 55.7 0.023 0.00 42 789 81.1 64.0 SSE | 156 8.1 SSE | 164 4.1 0.167 0.00 81.7 46.4
4/21/24 - 1500 13.5 -63 238.1 53.9 0.026 0.00 40 902 80.4 62.9 SE | 139 8.3 SE | 131 3.4 0.144 0.00 81.5 46.4
4/21/24 - 1400 13.5 -61 220.8 53.5 0.026 0.00 42 959 78.4 62.2 SSE | 149 7.8 S | 179 2.6 0.118 0.00 79.9 46.4
4/21/24 - 1300 13.6 -61 203.7 52.7 0.026 0.00 44 957 76.3 61.3 SE | 145 7.8 ESE | 108 3.1 0.092 0.00 78.0 46.4
4/21/24 - 1200 13.6 -61 187 51.8 0.024 0.00 46 902 73.8 60.2 SE | 138 7.6 SE | 135 3.1 0.066 0.00 75.4 46.4
4/21/24 - 1100 13.6 -63 170 51.2 0.020 0.00 52 786 69.6 58.8 SE | 125 7.9 E | 90 4.1 0.042 0.00 72.0 46.4
4/21/24 - 1000 13.6 -63 153.4 51.4 0.012 0.00 58 468 66.7 58.0 ESE | 110 8.4 ESE | 105 4.0 0.022 0.00 67.7 46.4
4/21/24 - 0900 13.7 -63 137.1 46.8 0.006 0.00 56 297 62.8 54.2 NE | 54 4.6 E | 101 1.7 0.011 0.00 65.8 46.4
4/21/24 - 0800 13.6 -65 120.6 43.7 0.003 0.00 67 192 54.9 49.4 NNE | 14 3.1 N | 8 1.0 0.005 0.00 60.7 46.4
4/21/24 - 0700 13.0 -65 102.9 42.1 0.000 0.00 83 26 46.9 44.9 N | 352 3.3 NW | 317 1.2 0.002 0.00 60.7 46.4
4/21/24 - 0600 12.8 -65 86.8 41.3 0.000 0.00 73 0 49.5 45.8 NNW | 331 2.5 W | 274 0.8 0.002 0.00 60.7 48.0
4/21/24 - 0500 12.8 -63 70.87 41.2 0.000 0.00 60 0 54.7 48.1 W | 277 7.1 W | 270 1.8 0.002 0.00 60.7 51.4
4/21/24 - 0400 12.9 -63 54.74 41.0 0.000 0.00 57 0 55.9 48.5 WSW | 256 7.4 W | 269 2.6 0.002 0.00 60.7 53.8
4/21/24 - 0300 12.9 -63 37.96 42.6 0.001 0.00 58 0 57.3 49.9 WSW | 253 11.5 WSW | 250 5.6 0.002 0.00 60.7 56.6
4/21/24 - 0200 12.9 -63 19.22 41.3 0.001 0.00 54 0 57.9 49.6 W | 269 11.3 WSW | 249 5.5 0.001 0.00 60.7 56.6
4/21/24 - 0100 12.9 -63 0 36.1 0.002 0.00 39 0 61.4 48.7 WSW | 254 14.1 WSW | 257 6.7 0.204 0.00 75.6 48.8
4/21/24 - 0000 13.0 -63 396.3 36.6 0.001 0.00 39 0 62.0 49.1 W | 266 8.8 WSW | 242 4.7 0.202 0.00 75.6 48.8
4/20/24 - 2300 13.0 -59 379.6 42.3 0.000 0.00 55 0 58.4 50.2 SW | 226 9.6 WSW | 239 3.3 0.201 0.00 75.6 48.8
4/20/24 - 2200 13.0 -61 363.2 42.2 0.000 0.00 53 0 59.5 50.6 W | 274 8.5 WSW | 246 2.5 0.200 0.00 75.6 48.8
4/20/24 - 2100 13.1 -61 346.4 40.6 0.000 0.00 45 0 62.0 50.8 SSE | 154 10.6 SSW | 207 2.8 0.200 0.00 75.6 48.8
4/20/24 - 2000 13.1 -59 330.5 36.0 0.001 0.00 34 36 65.2 50.1 S | 189 10.9 SW | 221 3.7 0.200 0.00 75.6 48.8
4/20/24 - 1900 13.6 -61 314.5 40.0 0.009 0.00 34 208 69.6 53.2 SW | 220 15.1 SW | 215 7.8 0.199 0.00 75.6 48.8
4/20/24 - 1800 13.6 -57 297.8 42.9 0.015 0.00 34 435 73.0 55.5 SW | 221 16.4 SW | 228 8.7 0.190 0.00 75.6 48.8
4/20/24 - 1700 13.6 -61 281.5 45.9 0.020 0.00 36 634 74.2 57.2 SW | 223 18.1 SSW | 204 9.2 0.175 0.00 75.6 48.8
4/20/24 - 1600 13.5 -61 264.9 51.9 0.023 0.00 45 801 74.9 60.6 SW | 236 17.4 WSW | 242 9.4 0.156 0.00 75.6 48.8
4/20/24 - 1500 13.6 -63 247.6 52.1 0.025 0.00 47 913 73.7 60.4 WSW | 248 19.0 WSW | 251 11.5 0.133 0.00 74.6 48.8
4/20/24 - 1400 13.6 -59 230.6 51.6 0.025 0.00 51 968 70.8 59.4 WSW | 257 22.2 WSW | 245 13.2 0.107 0.00 73.0 48.8
4/20/24 - 1300 13.6 -59 214.2 50.8 0.024 0.00 52 966 68.9 58.4 W | 261 24.2 W | 263 12.4 0.082 0.00 69.8 48.8
4/20/24 - 1200 13.7 -59 195.2 49.7 0.022 0.00 53 910 67.3 57.2 SW | 234 16.7 WSW | 239 8.0 0.059 0.00 69.0 48.8
4/20/24 - 1100 13.7 -61 178.5 49.0 0.018 0.00 60 790 63.2 55.5 SW | 234 13.8 W | 259 7.0 0.037 0.00 66.4 48.8
4/20/24 - 1000 13.7 0 162.6 48.0 0.010 0.00 65 467 59.8 53.7 WSW | 244 14.6 SW | 216 7.2 0.019 0.00 61.6 48.8
4/20/24 - 0900 13.8 -61 143.1 47.6 0.006 0.00 75 277 55.4 51.8 WSW | 249 11.8 WSW | 242 6.5 0.008 0.00 57.8 48.8
4/20/24 - 0800 13.8 -61 122.2 46.6 0.002 0.00 83 123 51.6 49.6 WSW | 241 13.7 WSW | 251 6.0 0.003 0.00 57.1 48.8
4/20/24 - 0700 12.9 -63 105.4 46.5 0.000 0.00 89 12 49.6 48.6 WSW | 246 13.5 SW | 225 3.7 0.001 0.00 57.1 48.8
4/20/24 - 0600 12.8 -65 88 46.9 0.000 0.00 88 0 50.4 49.2 WSW | 253 18.8 SW | 227 4.4 0.001 0.00 57.1 49.5
4/20/24 - 0500 12.8 -65 71.55 46.7 0.000 0.00 82 0 51.9 49.8 SSW | 204 13.7 SW | 221 4.1 0.001 0.00 57.1 51.0
4/20/24 - 0400 12.8 -63 54.74 47.1 0.000 0.00 79 0 53.4 50.6 WNW | 290 8.2 SW | 226 2.5 0.001 0.00 57.1 51.8
4/20/24 - 0300 12.9 -61 36.47 47.6 0.000 0.00 75 0 55.4 51.8 WSW | 249 11.6 SW | 222 5.3 0.001 0.00 57.1 53.8
4/20/24 - 0200 12.9 -63 17.71 47.9 0.001 0.00 72 0 56.6 52.4 WSW | 240 13.8 SW | 235 6.7 0.001 0.00 57.1 56.3
4/20/24 - 0100 12.9 -65 0 47.4 0.001 0.00 69 0 57.5 52.5 SW | 232 17.7 SW | 236 7.0 0.182 0.00 73.0 52.3
4/20/24 - 0000 12.9 -63 388.3 46.9 0.001 0.00 65 0 58.8 52.8 SW | 235 16.3 WSW | 258 9.3 0.181 0.00 73.0 52.3
4/19/24 - 2300 13.0 -61 371.3 47.1 0.001 0.00 64 0 59.4 53.1 SW | 227 13.4 WSW | 239 5.7 0.180 0.00 73.0 52.3
4/19/24 - 2200 13.0 -61 352.3 45.7 0.001 0.00 60 0 59.5 52.4 SW | 220 12.8 W | 262 4.8 0.179 0.00 73.0 52.3
4/19/24 - 2100 13.0 -57 335.3 46.1 0.001 0.00 58 0 61.1 53.2 WSW | 256 16.0 WSW | 238 7.5 0.178 0.00 73.0 52.3
4/19/24 - 2000 13.1 -61 320.4 48.0 0.002 0.00 58 31 62.9 54.9 WSW | 237 14.8 W | 269 6.2 0.177 0.00 73.0 52.3
4/19/24 - 1900 13.6 -59 303.5 52.1 0.006 0.00 59 208 67.1 58.6 WSW | 254 17.4 SW | 218 6.8 0.175 0.00 73.0 52.3
4/19/24 - 1800 13.6 -61 286.7 54.6 0.011 0.00 60 419 68.9 60.6 WSW | 246 16.4 SSW | 195 9.4 0.169 0.00 73.0 52.3
4/19/24 - 1700 13.6 -57 269.6 55.7 0.017 0.00 59 625 70.8 61.9 WSW | 250 20.1 WSW | 243 11.0 0.158 0.00 73.0 52.3
4/19/24 - 1600 13.6 -59 253 55.2 0.021 0.00 56 789 71.8 61.8 WSW | 243 20.0 SW | 224 10.0 0.141 0.00 73.0 52.3
4/19/24 - 1500 13.6 -61 237.2 54.6 0.023 0.00 57 894 70.7 61.1 WSW | 245 17.2 WSW | 251 10.4 0.120 0.00 71.9 52.3
4/19/24 - 1400 13.7 -59 220.8 53.5 0.022 0.00 61 948 67.5 59.6 WSW | 252 20.4 SW | 235 12.9 0.098 0.00 69.1 52.3
4/19/24 - 1300 13.6 -57 203.1 53.3 0.021 0.00 63 936 66.2 59.1 WSW | 244 17.3 WSW | 251 8.4 0.076 0.00 68.9 52.3
4/19/24 - 1200 13.7 -61 186.5 52.5 0.019 0.00 66 885 64.2 57.9 WSW | 240 17.8 W | 270 8.7 0.055 0.00 65.3 52.3
4/19/24 - 1100 13.7 -57 169.9 51.4 0.016 0.00 70 767 61.5 56.4 WSW | 245 16.2 W | 273 8.7 0.035 0.00 63.9 52.3
4/19/24 - 1000 13.7 -61 154.7 50.4 0.009 0.00 74 455 58.6 54.7 WSW | 244 16.5 WSW | 238 9.3 0.019 0.00 59.9 52.3
4/19/24 - 0900 13.7 -61 137.1 49.2 0.006 0.00 74 284 57.3 53.5 WSW | 240 14.9 WSW | 240 8.9 0.010 0.00 59.0 52.3
4/19/24 - 0800 13.7 -59 119.7 48.3 0.003 0.00 79 171 54.5 51.8 WSW | 256 12.8 SW | 232 7.1 0.004 0.00 59.0 52.3
4/19/24 - 0700 12.9 -63 103.6 47.3 0.000 0.00 80 19 53.2 50.7 W | 262 13.2 WSW | 239 4.4 0.001 0.00 59.0 52.3
4/19/24 - 0600 12.8 -63 86.5 47.2 0.000 0.00 80 0 53.2 50.6 WSW | 240 11.3 SW | 236 5.0 0.001 0.00 59.0 52.3
4/19/24 - 0500 12.8 -63 69.34 47.9 0.000 0.00 83 0 52.9 50.9 WSW | 241 12.8 WSW | 252 4.9 0.001 0.00 59.0 52.3
4/19/24 - 0400 12.8 -63 52.41 48.6 0.000 0.00 83 0 53.5 51.6 SW | 230 12.1 SW | 225 5.7 0.001 0.00 59.0 52.7
4/19/24 - 0300 12.9 -63 35.15 48.8 0.000 0.00 78 0 55.4 52.5 WSW | 248 12.6 WSW | 248 5.1 0.001 0.00 59.0 54.6
4/19/24 - 0200 12.9 -63 18.58 48.8 0.001 0.00 72 0 57.7 53.4 WSW | 247 13.2 WSW | 252 6.5 0.001 0.00 59.0 55.6
4/19/24 - 0100 12.9 -63 0 48.7 0.001 0.00 70 0 58.6 53.7 SW | 232 12.4 WSW | 240 6.5 0.198 0.00 78.7 47.5
4/19/24 - 0000 12.9 -61 393.9 48.8 0.000 0.00 69 0 58.8 53.8 SW | 233 10.4 SW | 233 5.1 0.198 0.00 78.7 47.5
4/18/24 - 2300 13.0 -63 376.9 49.2 0.001 0.00 65 0 61.1 54.9 SW | 236 11.4 WSW | 251 5.1 0.197 0.00 78.7 47.5
4/18/24 - 2200 13.0 -61 361 49.5 0.001 0.00 64 0 61.7 55.3 WSW | 241 14.1 WSW | 238 7.4 0.196 0.00 78.7 47.5
4/18/24 - 2100 13.0 -63 345 50.0 0.001 0.00 58 0 64.9 56.7 SW | 232 8.8 SW | 233 4.4 0.195 0.00 78.7 47.5
4/18/24 - 2000 13.1 -57 327.9 52.2 0.001 0.00 60 25 66.7 58.5 W | 278 14.2 W | 262 6.0 0.195 0.00 78.7 47.5
4/18/24 - 1900 13.6 -63 310.6 51.1 0.006 0.00 50 183 70.6 59.0 SW | 236 12.6 SW | 227 6.8 0.193 0.00 78.7 47.5
4/18/24 - 1800 13.5 -61 294.7 50.6 0.013 0.00 43 403 74.2 59.6 SSW | 209 13.0 S | 189 8.0 0.187 0.00 78.7 47.5
4/18/24 - 1700 13.5 -59 278.3 51.2 0.020 0.00 43 644 75.6 60.4 SSW | 205 14.5 SSW | 193 8.9 0.174 0.00 78.7 47.5
4/18/24 - 1600 13.5 -61 262 52.7 0.022 0.00 43 744 76.7 61.5 SW | 226 14.4 SW | 215 7.6 0.154 0.00 78.7 47.5
4/18/24 - 1500 13.5 -61 241 48.1 0.020 0.00 36 689 77.4 59.1 S | 187 10.0 WSW | 238 4.2 0.132 0.00 78.4 47.5
4/18/24 - 1400 13.5 -59 224.7 45.7 0.026 0.00 33 936 76.9 57.8 SE | 139 7.1 SE | 132 2.9 0.112 0.00 77.8 47.5
4/18/24 - 1300 13.6 -59 207.7 47.3 0.025 0.00 37 949 75.1 58.2 SSE | 150 7.1 ESE | 119 2.7 0.086 0.00 76.8 47.5
4/18/24 - 1200 13.6 -61 189.8 48.9 0.023 0.00 43 891 72.6 58.3 SSE | 163 7.1 SE | 132 2.3 0.061 0.00 74.8 47.5
4/18/24 - 1100 13.6 -61 172.5 51.1 0.019 0.00 53 773 69.2 58.6 SE | 142 8.1 SE | 134 3.0 0.038 0.00 70.9 47.5
4/18/24 - 1000 13.7 -61 155.8 52.4 0.011 0.00 62 452 66.1 58.5 SE | 137 6.0 E | 101 2.5 0.019 0.00 69.1 47.5
4/18/24 - 0900 13.7 -59 138.4 53.8 0.006 0.00 73 282 62.7 58.3 E | 87 3.9 ESE | 109 0.7 0.008 0.00 64.3 47.5
4/18/24 - 0800 13.6 -63 118.4 51.4 0.002 0.00 93 192 53.4 53.2 NW | 312 2.8 WNW | 301 0.7 0.002 0.00 58.6 47.5
4/18/24 - 0700 12.9 -59 102.2 47.8 0.000 0.00 96 22 48.7 48.9 NW | 316 3.9 N | 4 1.9 0.000 0.00 54.6 47.5
4/18/24 - 0600 12.8 -63 83.4 47.5 0.000 0.00 96 0 48.6 48.7 NW | 312 4.0 NW | 310 2.0 0.000 0.00 54.6 47.5
4/18/24 - 0500 12.8 -61 67.09 48.9 0.000 0.00 95 0 50.2 50.3 WNW | 288 3.6 WNW | 287 1.5 0.000 0.00 54.6 49.3
4/18/24 - 0400 12.9 -63 49.88 49.6 0.000 0.00 94 0 51.3 51.2 WNW | 289 3.9 WNW | 297 2.4 0.000 0.00 54.6 50.4
4/18/24 - 0300 12.9 -65 33.34 50.7 0.000 0.00 92 0 52.9 52.6 NW | 309 4.6 NW | 316 3.0 0.000 0.00 54.6 52.1
4/18/24 - 0200 12.9 -63 17.12 51.3 0.000 0.00 90 0 54.0 53.4 NW | 306 5.7 NW | 309 3.2 0.000 0.00 54.6 53.4
4/18/24 - 0100 12.9 -63 406.6 51.8 0.000 0.00 91 0 54.5 54.0 NW | 311 5.1 NW | 325 3.3 0.151 0.00 77.7 47.0
4/18/24 - 0000 12.9 -61 389.6 52.3 0.000 0.00 90 0 55.3 54.6 NW | 309 4.7 NW | 308 3.7 0.151 0.00 77.7 47.0
4/17/24 - 2300 13.0 -59 370.8 52.9 0.000 0.00 87 0 56.7 55.6 NW | 309 5.3 WNW | 295 3.4 0.151 0.00 77.7 47.0
4/17/24 - 2200 13.0 -61 351.7 53.4 0.000 0.00 79 0 59.9 57.1 NW | 314 7.1 N | 352 3.7 0.151 0.00 77.7 47.0
4/17/24 - 2100 13.0 -61 334.7 53.8 0.000 0.00 75 0 61.7 57.9 NW | 315 7.5 NNW | 345 3.8 0.151 0.00 77.7 47.0
4/17/24 - 2000 13.1 -61 317.5 55.6 0.000 0.00 69 29 66.4 60.6 WNW | 283 3.9 WNW | 282 1.8 0.151 0.00 77.7 47.0
4/17/24 - 1900 13.5 -61 301.5 51.1 0.005 0.00 41 202 76.3 60.4 S | 188 4.8 SSE | 161 2.2 0.151 0.00 77.7 47.0
4/17/24 - 1800 13.5 -57 284.8 49.4 0.011 0.00 38 422 76.6 59.6 SSE | 165 5.7 ESE | 122 2.2 0.146 0.00 77.6 47.0
4/17/24 - 1700 13.4 -59 264.5 49.3 0.014 0.00 38 509 76.4 59.5 S | 175 9.2 E | 81 3.0 0.135 0.00 77.6 47.0
4/17/24 - 1600 13.6 -57 248.4 47.6 0.016 0.00 37 576 76.1 58.6 NE | 54 6.1 ESE | 117 2.3 0.121 0.00 76.8 47.0
4/17/24 - 1500 13.6 -59 231 49.0 0.021 0.00 40 748 75.2 59.0 E | 80 8.0 E | 89 3.1 0.105 0.00 76.7 47.0
4/17/24 - 1400 13.6 -63 215.6 52.2 0.020 0.00 47 721 73.4 60.4 ENE | 75 10.3 ENE | 66 5.1 0.084 0.00 74.3 47.0
4/17/24 - 1300 13.5 -61 198.4 54.1 0.017 0.00 54 616 71.4 61.0 ENE | 73 9.3 ENE | 57 5.2 0.064 0.00 72.3 47.0
4/17/24 - 1200 13.6 -59 180.7 53.6 0.016 0.00 55 586 70.4 60.4 NE | 41 7.9 ENE | 69 3.3 0.047 0.00 71.2 47.0
4/17/24 - 1100 13.6 -61 164.1 54.2 0.016 0.00 61 649 68.2 60.2 SE | 129 6.7 ESE | 117 2.1 0.032 0.00 70.0 47.0
4/17/24 - 1000 13.7 0 147.1 53.3 0.010 0.00 69 464 63.7 58.2 ESE | 118 4.4 SSE | 149 1.8 0.016 0.00 66.7 47.0
4/17/24 - 0900 13.8 -61 131.7 52.8 0.004 0.00 79 217 59.4 56.5 NNE | 14 3.1 NNE | 21 1.0 0.006 0.00 62.4 47.0
4/17/24 - 0800 13.9 -61 115.6 50.2 0.001 0.00 96 144 51.2 51.5 WNW | 302 3.3 NNW | 342 1.6 0.001 0.00 55.7 47.0
4/17/24 - 0700 12.9 -59 100 46.8 0.000 0.00 96 14 47.8 47.9 NW | 316 2.7 W | 274 1.5 0.000 0.00 51.9 47.0
4/17/24 - 0600 12.8 -63 84 47.4 0.000 0.00 96 0 48.6 48.6 WNW | 297 3.1 WNW | 299 1.5 0.000 0.00 51.9 47.7
4/17/24 - 0500 12.8 -63 67.27 47.7 0.000 0.00 95 0 49.1 49.1 NW | 314 3.0 NNW | 342 1.3 0.000 0.00 51.9 48.5
4/17/24 - 0400 12.8 -59 50.33 48.4 0.000 0.00 95 0 49.7 49.7 WNW | 302 3.2 WNW | 296 1.3 0.000 0.00 51.9 49.1
4/17/24 - 0300 12.9 -63 34.21 48.2 0.000 0.00 94 0 49.8 49.7 WNW | 292 3.3 W | 276 1.3 0.000 0.00 51.9 49.4
4/17/24 - 0200 12.9 -63 17.89 49.4 0.000 0.00 93 0 51.4 51.1 WNW | 290 3.3 NW | 319 1.3 0.000 0.00 51.9 50.5
4/17/24 - 0100 12.9 -63 408.2 50.6 0.000 0.00 88 0 54.2 53.1 WNW | 299 4.2 NW | 325 1.4 0.178 0.00 75.0 42.9
4/17/24 - 0000 12.9 -63 391.3 51.0 0.000 0.00 87 0 54.7 53.6 WNW | 284 5.0 WNW | 299 2.1 0.178 0.00 75.0 42.9
4/16/24 - 2300 13.0 -57 374.3 51.0 0.000 0.00 84 0 55.8 54.0 NW | 326 3.6 NNW | 333 1.5 0.178 0.00 75.0 42.9
4/16/24 - 2200 13.0 -61 358.2 51.0 0.000 0.00 77 0 58.4 55.0 NW | 320 4.6 NW | 313 2.2 0.178 0.00 75.0 42.9
4/16/24 - 2100 13.0 -63 340.2 51.5 0.000 0.00 68 0 62.2 56.7 WNW | 288 6.5 SW | 233 3.0 0.178 0.00 75.0 42.9
Max 13.9 0 410.4 57.4 0.027 0.00 96 1,023 81.5 64.8 - 28.2 - 17.8 0.209 0.00 82.0 56.6
Avg 13.3 -60.1845 205.9196 49.3 0.008 0.00 66 294 62.2 55.1 - 11.0 - 5.4 - - - -
Min 12.8 -65 0 36.0 0.000 0.00 33 0 46.9 44.9 - 2.2 - 0.5 0.000 0.00 51.9 42.9
Total - - - - 1.308 0.00 - - - - - - - - - - - -
Tip: Bookmark this page for easy future reference